sensor_id;sensor_type;location;lat;lon;timestamp;P1;durP1;ratioP1;P2;durP2;ratioP2
1993;SDS011;998;49.906;10.908;2022-08-11T00:01:01;4.10;;;3.00;;
1993;SDS011;998;49.906;10.908;2022-08-11T00:04:12;5.87;;;2.60;;
1993;SDS011;998;49.906;10.908;2022-08-11T00:07:20;6.77;;;3.90;;
1993;SDS011;998;49.906;10.908;2022-08-11T00:10:09;4.70;;;2.80;;
1993;SDS011;998;49.906;10.908;2022-08-11T00:13:01;4.23;;;2.70;;
1993;SDS011;998;49.906;10.908;2022-08-11T00:15:43;4.10;;;2.53;;
1993;SDS011;998;49.906;10.908;2022-08-11T00:21:29;4.50;;;2.70;;
1993;SDS011;998;49.906;10.908;2022-08-11T00:24:17;5.17;;;2.93;;
1993;SDS011;998;49.906;10.908;2022-08-11T00:27:07;5.90;;;2.87;;
1993;SDS011;998;49.906;10.908;2022-08-11T00:29:42;4.80;;;3.00;;
1993;SDS011;998;49.906;10.908;2022-08-11T00:32:23;4.70;;;2.73;;
1993;SDS011;998;49.906;10.908;2022-08-11T00:34:54;3.43;;;2.27;;
1993;SDS011;998;49.906;10.908;2022-08-11T00:37:25;5.30;;;2.50;;
1993;SDS011;998;49.906;10.908;2022-08-11T00:39:59;4.47;;;3.20;;
1993;SDS011;998;49.906;10.908;2022-08-11T00:42:42;7.53;;;3.50;;
1993;SDS011;998;49.906;10.908;2022-08-11T00:45:26;4.07;;;3.03;;
1993;SDS011;998;49.906;10.908;2022-08-11T00:48:05;8.43;;;3.77;;
1993;SDS011;998;49.906;10.908;2022-08-11T00:50:45;6.50;;;2.70;;
1993;SDS011;998;49.906;10.908;2022-08-11T00:53:25;4.73;;;2.63;;
1993;SDS011;998;49.906;10.908;2022-08-11T00:59:11;4.30;;;2.87;;
1993;SDS011;998;49.906;10.908;2022-08-11T01:02:11;4.70;;;3.27;;
1993;SDS011;998;49.906;10.908;2022-08-11T01:07:55;6.27;;;2.73;;
1993;SDS011;998;49.906;10.908;2022-08-11T01:14:13;5.63;;;3.20;;
1993;SDS011;998;49.906;10.908;2022-08-11T01:20:28;5.83;;;3.33;;
1993;SDS011;998;49.906;10.908;2022-08-11T01:33:03;6.87;;;3.20;;
1993;SDS011;998;49.906;10.908;2022-08-11T01:42:34;4.10;;;3.20;;
1993;SDS011;998;49.906;10.908;2022-08-11T01:45:46;6.10;;;3.17;;
1993;SDS011;998;49.906;10.908;2022-08-11T01:48:20;8.17;;;2.97;;
1993;SDS011;998;49.906;10.908;2022-08-11T01:51:04;8.57;;;3.03;;
1993;SDS011;998;49.906;10.908;2022-08-11T01:53:44;5.10;;;3.20;;
1993;SDS011;998;49.906;10.908;2022-08-11T01:56:25;6.83;;;3.33;;
1993;SDS011;998;49.906;10.908;2022-08-11T01:59:00;4.50;;;3.40;;
1993;SDS011;998;49.906;10.908;2022-08-11T02:01:37;4.93;;;3.47;;
1993;SDS011;998;49.906;10.908;2022-08-11T02:04:17;3.67;;;2.50;;
1993;SDS011;998;49.906;10.908;2022-08-11T02:06:52;5.70;;;3.20;;
1993;SDS011;998;49.906;10.908;2022-08-11T02:09:37;5.30;;;3.10;;
1993;SDS011;998;49.906;10.908;2022-08-11T02:12:31;9.93;;;2.70;;
1993;SDS011;998;49.906;10.908;2022-08-11T02:15:08;7.10;;;3.67;;
1993;SDS011;998;49.906;10.908;2022-08-11T02:18:09;6.93;;;3.20;;
1993;SDS011;998;49.906;10.908;2022-08-11T02:21:01;6.63;;;3.40;;
1993;SDS011;998;49.906;10.908;2022-08-11T02:24:03;5.70;;;3.40;;
1993;SDS011;998;49.906;10.908;2022-08-11T02:26:40;6.93;;;3.67;;
1993;SDS011;998;49.906;10.908;2022-08-11T02:29:18;6.00;;;3.67;;
1993;SDS011;998;49.906;10.908;2022-08-11T02:31:53;5.53;;;3.27;;
1993;SDS011;998;49.906;10.908;2022-08-11T02:34:46;8.03;;;3.40;;
1993;SDS011;998;49.906;10.908;2022-08-11T02:37:21;4.57;;;3.50;;
1993;SDS011;998;49.906;10.908;2022-08-11T02:40:01;5.10;;;3.17;;
1993;SDS011;998;49.906;10.908;2022-08-11T02:42:40;5.63;;;3.70;;
1993;SDS011;998;49.906;10.908;2022-08-11T02:48:28;8.07;;;3.23;;
1993;SDS011;998;49.906;10.908;2022-08-11T02:51:19;5.80;;;3.30;;
1993;SDS011;998;49.906;10.908;2022-08-11T02:54:00;8.73;;;3.30;;
1993;SDS011;998;49.906;10.908;2022-08-11T02:56:42;4.97;;;2.97;;
1993;SDS011;998;49.906;10.908;2022-08-11T02:59:18;9.90;;;4.43;;
1993;SDS011;998;49.906;10.908;2022-08-11T03:02:15;6.93;;;3.30;;
1993;SDS011;998;49.906;10.908;2022-08-11T03:04:59;4.33;;;3.43;;
1993;SDS011;998;49.906;10.908;2022-08-11T03:07:33;6.73;;;3.37;;
1993;SDS011;998;49.906;10.908;2022-08-11T03:10:07;4.90;;;2.90;;
1993;SDS011;998;49.906;10.908;2022-08-11T03:12:44;7.77;;;3.40;;
1993;SDS011;998;49.906;10.908;2022-08-11T03:15:40;10.90;;;3.63;;
1993;SDS011;998;49.906;10.908;2022-08-11T03:18:30;7.10;;;3.23;;
1993;SDS011;998;49.906;10.908;2022-08-11T03:21:09;4.73;;;3.10;;
1993;SDS011;998;49.906;10.908;2022-08-11T03:23:49;3.93;;;3.33;;
1993;SDS011;998;49.906;10.908;2022-08-11T03:26:27;4.83;;;3.80;;
1993;SDS011;998;49.906;10.908;2022-08-11T03:29:03;6.17;;;3.57;;
1993;SDS011;998;49.906;10.908;2022-08-11T03:31:40;5.13;;;3.63;;
1993;SDS011;998;49.906;10.908;2022-08-11T03:34:17;4.90;;;4.10;;
1993;SDS011;998;49.906;10.908;2022-08-11T03:40:32;6.60;;;4.27;;
1993;SDS011;998;49.906;10.908;2022-08-11T03:43:41;5.40;;;3.63;;
1993;SDS011;998;49.906;10.908;2022-08-11T03:46:25;4.30;;;3.60;;
1993;SDS011;998;49.906;10.908;2022-08-11T03:49:24;5.13;;;3.20;;
1993;SDS011;998;49.906;10.908;2022-08-11T03:52:06;4.73;;;3.50;;
1993;SDS011;998;49.906;10.908;2022-08-11T03:54:45;7.90;;;4.33;;
1993;SDS011;998;49.906;10.908;2022-08-11T04:00:49;5.40;;;3.67;;
1993;SDS011;998;49.906;10.908;2022-08-11T04:03:59;5.10;;;3.90;;
1993;SDS011;998;49.906;10.908;2022-08-11T04:13:10;8.07;;;4.27;;
1993;SDS011;998;49.906;10.908;2022-08-11T04:19:19;9.50;;;4.60;;
1993;SDS011;998;49.906;10.908;2022-08-11T04:22:21;14.70;;;3.93;;
1993;SDS011;998;49.906;10.908;2022-08-11T04:31:38;5.60;;;3.60;;
1993;SDS011;998;49.906;10.908;2022-08-11T04:34:35;7.30;;;3.83;;
1993;SDS011;998;49.906;10.908;2022-08-11T04:43:45;8.20;;;3.83;;
1993;SDS011;998;49.906;10.908;2022-08-11T04:47:07;8.07;;;3.63;;
1993;SDS011;998;49.906;10.908;2022-08-11T04:50:24;5.07;;;4.00;;
1993;SDS011;998;49.906;10.908;2022-08-11T04:53:24;7.63;;;3.80;;
1993;SDS011;998;49.906;10.908;2022-08-11T04:56:13;5.30;;;4.00;;
1993;SDS011;998;49.906;10.908;2022-08-11T05:14:40;6.27;;;4.90;;
1993;SDS011;998;49.906;10.908;2022-08-11T05:17:36;8.17;;;3.80;;
1993;SDS011;998;49.906;10.908;2022-08-11T05:20:25;10.03;;;3.80;;
1993;SDS011;998;49.906;10.908;2022-08-11T05:23:10;7.60;;;3.60;;
1993;SDS011;998;49.906;10.908;2022-08-11T05:25:57;6.20;;;3.80;;
1993;SDS011;998;49.906;10.908;2022-08-11T05:28:45;9.30;;;4.07;;
1993;SDS011;998;49.906;10.908;2022-08-11T05:31:37;5.27;;;3.83;;
1993;SDS011;998;49.906;10.908;2022-08-11T05:34:24;5.13;;;3.63;;
1993;SDS011;998;49.906;10.908;2022-08-11T05:37:12;8.77;;;4.20;;
1993;SDS011;998;49.906;10.908;2022-08-11T05:39:45;12.00;;;4.57;;
1993;SDS011;998;49.906;10.908;2022-08-11T05:42:32;5.90;;;3.70;;
1993;SDS011;998;49.906;10.908;2022-08-11T05:45:21;8.07;;;3.90;;
1993;SDS011;998;49.906;10.908;2022-08-11T05:48:06;8.77;;;3.83;;
1993;SDS011;998;49.906;10.908;2022-08-11T05:50:51;5.63;;;3.80;;
1993;SDS011;998;49.906;10.908;2022-08-11T05:53:47;7.60;;;4.70;;
1993;SDS011;998;49.906;10.908;2022-08-11T05:56:38;6.63;;;4.00;;
1993;SDS011;998;49.906;10.908;2022-08-11T05:59:11;15.27;;;4.80;;
1993;SDS011;998;49.906;10.908;2022-08-11T06:01:39;7.47;;;3.40;;
1993;SDS011;998;49.906;10.908;2022-08-11T06:04:11;7.03;;;3.63;;
1993;SDS011;998;49.906;10.908;2022-08-11T06:06:46;5.20;;;3.70;;
1993;SDS011;998;49.906;10.908;2022-08-11T06:12:15;6.70;;;4.30;;
1993;SDS011;998;49.906;10.908;2022-08-11T06:14:44;5.90;;;4.30;;
1993;SDS011;998;49.906;10.908;2022-08-11T06:17:12;9.00;;;4.47;;
1993;SDS011;998;49.906;10.908;2022-08-11T06:19:39;12.10;;;3.90;;
1993;SDS011;998;49.906;10.908;2022-08-11T06:22:09;13.23;;;4.73;;
1993;SDS011;998;49.906;10.908;2022-08-11T06:24:39;10.10;;;4.03;;
1993;SDS011;998;49.906;10.908;2022-08-11T06:27:10;14.70;;;4.60;;
1993;SDS011;998;49.906;10.908;2022-08-11T06:29:45;6.57;;;3.93;;
1993;SDS011;998;49.906;10.908;2022-08-11T06:32:15;5.70;;;3.77;;
1993;SDS011;998;49.906;10.908;2022-08-11T06:34:51;8.27;;;3.80;;
1993;SDS011;998;49.906;10.908;2022-08-11T06:37:31;10.80;;;3.73;;
1993;SDS011;998;49.906;10.908;2022-08-11T06:40:10;13.83;;;4.43;;
1993;SDS011;998;49.906;10.908;2022-08-11T06:42:55;8.50;;;4.23;;
1993;SDS011;998;49.906;10.908;2022-08-11T06:45:28;11.73;;;4.30;;
1993;SDS011;998;49.906;10.908;2022-08-11T06:47:59;11.37;;;4.00;;
1993;SDS011;998;49.906;10.908;2022-08-11T06:50:28;11.43;;;3.50;;
1993;SDS011;998;49.906;10.908;2022-08-11T06:53:14;6.27;;;3.67;;
1993;SDS011;998;49.906;10.908;2022-08-11T06:55:47;9.90;;;4.20;;
1993;SDS011;998;49.906;10.908;2022-08-11T06:58:33;13.30;;;4.33;;
1993;SDS011;998;49.906;10.908;2022-08-11T07:01:28;12.77;;;3.77;;
1993;SDS011;998;49.906;10.908;2022-08-11T07:04:04;4.63;;;3.03;;
1993;SDS011;998;49.906;10.908;2022-08-11T07:06:38;9.20;;;2.80;;
1993;SDS011;998;49.906;10.908;2022-08-11T07:09:54;4.43;;;3.23;;
1993;SDS011;998;49.906;10.908;2022-08-11T07:12:58;7.93;;;3.77;;
1993;SDS011;998;49.906;10.908;2022-08-11T07:15:44;9.90;;;4.10;;
1993;SDS011;998;49.906;10.908;2022-08-11T07:18:17;9.23;;;3.67;;
1993;SDS011;998;49.906;10.908;2022-08-11T07:21:07;6.03;;;3.33;;
1993;SDS011;998;49.906;10.908;2022-08-11T07:23:54;9.57;;;3.30;;
1993;SDS011;998;49.906;10.908;2022-08-11T07:26:41;11.83;;;4.23;;
1993;SDS011;998;49.906;10.908;2022-08-11T07:29:32;5.20;;;3.53;;
1993;SDS011;998;49.906;10.908;2022-08-11T07:32:07;9.07;;;3.33;;
1993;SDS011;998;49.906;10.908;2022-08-11T07:34:45;7.43;;;4.90;;
1993;SDS011;998;49.906;10.908;2022-08-11T07:37:17;9.33;;;5.10;;
1993;SDS011;998;49.906;10.908;2022-08-11T07:39:46;4.33;;;3.27;;
1993;SDS011;998;49.906;10.908;2022-08-11T07:42:15;9.73;;;3.30;;
1993;SDS011;998;49.906;10.908;2022-08-11T07:44:48;4.97;;;3.00;;
1993;SDS011;998;49.906;10.908;2022-08-11T07:47:34;8.47;;;3.40;;
1993;SDS011;998;49.906;10.908;2022-08-11T07:50:20;4.80;;;2.80;;
1993;SDS011;998;49.906;10.908;2022-08-11T07:53:05;5.07;;;3.20;;
1993;SDS011;998;49.906;10.908;2022-08-11T07:55:32;5.60;;;3.27;;
1993;SDS011;998;49.906;10.908;2022-08-11T07:57:59;5.60;;;2.93;;
1993;SDS011;998;49.906;10.908;2022-08-11T08:00:47;6.67;;;4.43;;
1993;SDS011;998;49.906;10.908;2022-08-11T08:03:32;8.20;;;2.90;;
1993;SDS011;998;49.906;10.908;2022-08-11T08:06:17;7.50;;;3.43;;
1993;SDS011;998;49.906;10.908;2022-08-11T08:09:02;5.10;;;3.30;;
1993;SDS011;998;49.906;10.908;2022-08-11T08:11:49;7.07;;;3.10;;
1993;SDS011;998;49.906;10.908;2022-08-11T08:14:34;4.00;;;2.50;;
1993;SDS011;998;49.906;10.908;2022-08-11T08:17:21;4.50;;;2.63;;
1993;SDS011;998;49.906;10.908;2022-08-11T08:20:07;3.83;;;2.73;;
1993;SDS011;998;49.906;10.908;2022-08-11T08:22:37;5.67;;;3.00;;
1993;SDS011;998;49.906;10.908;2022-08-11T08:25:05;5.73;;;2.47;;
1993;SDS011;998;49.906;10.908;2022-08-11T08:27:33;4.40;;;2.83;;
1993;SDS011;998;49.906;10.908;2022-08-11T08:30:03;6.83;;;2.83;;
1993;SDS011;998;49.906;10.908;2022-08-11T08:32:50;4.70;;;2.30;;
1993;SDS011;998;49.906;10.908;2022-08-11T08:35:19;7.33;;;2.27;;
1993;SDS011;998;49.906;10.908;2022-08-11T08:37:48;4.27;;;2.47;;
1993;SDS011;998;49.906;10.908;2022-08-11T08:40:16;4.23;;;2.83;;
1993;SDS011;998;49.906;10.908;2022-08-11T08:42:45;5.00;;;2.47;;
1993;SDS011;998;49.906;10.908;2022-08-11T08:45:18;3.90;;;2.80;;
1993;SDS011;998;49.906;10.908;2022-08-11T08:47:46;5.30;;;2.60;;
1993;SDS011;998;49.906;10.908;2022-08-11T08:50:22;5.70;;;2.70;;
1993;SDS011;998;49.906;10.908;2022-08-11T08:53:13;8.00;;;2.60;;
1993;SDS011;998;49.906;10.908;2022-08-11T08:55:45;3.37;;;2.17;;
1993;SDS011;998;49.906;10.908;2022-08-11T08:58:12;12.20;;;3.10;;
1993;SDS011;998;49.906;10.908;2022-08-11T09:00:41;4.43;;;2.63;;
1993;SDS011;998;49.906;10.908;2022-08-11T09:03:11;5.20;;;2.63;;
1993;SDS011;998;49.906;10.908;2022-08-11T09:05:38;3.40;;;2.40;;
1993;SDS011;998;49.906;10.908;2022-08-11T09:08:06;4.27;;;2.47;;
1993;SDS011;998;49.906;10.908;2022-08-11T09:10:34;4.00;;;2.80;;
1993;SDS011;998;49.906;10.908;2022-08-11T09:13:03;6.60;;;2.63;;
1993;SDS011;998;49.906;10.908;2022-08-11T09:15:35;5.23;;;3.43;;
1993;SDS011;998;49.906;10.908;2022-08-11T09:18:03;3.70;;;2.60;;
1993;SDS011;998;49.906;10.908;2022-08-11T09:20:35;4.33;;;2.63;;
1993;SDS011;998;49.906;10.908;2022-08-11T09:23:04;4.40;;;2.53;;
1993;SDS011;998;49.906;10.908;2022-08-11T09:26:02;4.73;;;2.70;;
1993;SDS011;998;49.906;10.908;2022-08-11T09:28:47;4.80;;;2.47;;
1993;SDS011;998;49.906;10.908;2022-08-11T09:31:15;8.93;;;2.10;;
1993;SDS011;998;49.906;10.908;2022-08-11T09:33:43;5.73;;;2.50;;
1993;SDS011;998;49.906;10.908;2022-08-11T09:36:13;4.00;;;2.67;;
1993;SDS011;998;49.906;10.908;2022-08-11T09:38:57;5.30;;;2.73;;
1993;SDS011;998;49.906;10.908;2022-08-11T09:41:45;5.50;;;2.87;;
1993;SDS011;998;49.906;10.908;2022-08-11T09:44:12;5.90;;;2.20;;
1993;SDS011;998;49.906;10.908;2022-08-11T09:46:57;3.90;;;2.40;;
1993;SDS011;998;49.906;10.908;2022-08-11T09:49:25;5.03;;;2.20;;
1993;SDS011;998;49.906;10.908;2022-08-11T09:51:54;4.17;;;2.13;;
1993;SDS011;998;49.906;10.908;2022-08-11T09:54:21;4.67;;;2.37;;
1993;SDS011;998;49.906;10.908;2022-08-11T09:56:50;4.53;;;2.40;;
1993;SDS011;998;49.906;10.908;2022-08-11T09:59:35;7.83;;;2.70;;
1993;SDS011;998;49.906;10.908;2022-08-11T10:02:03;3.37;;;2.30;;
1993;SDS011;998;49.906;10.908;2022-08-11T10:04:34;5.30;;;2.13;;
1993;SDS011;998;49.906;10.908;2022-08-11T10:07:07;3.47;;;2.30;;
1993;SDS011;998;49.906;10.908;2022-08-11T10:09:35;3.90;;;2.57;;
1993;SDS011;998;49.906;10.908;2022-08-11T10:12:05;5.33;;;1.80;;
1993;SDS011;998;49.906;10.908;2022-08-11T10:14:36;6.57;;;2.67;;
1993;SDS011;998;49.906;10.908;2022-08-11T10:17:26;6.20;;;2.50;;
1993;SDS011;998;49.906;10.908;2022-08-11T10:19:57;4.30;;;2.50;;
1993;SDS011;998;49.906;10.908;2022-08-11T10:22:28;4.57;;;2.50;;
1993;SDS011;998;49.906;10.908;2022-08-11T10:28:35;3.30;;;1.90;;
1993;SDS011;998;49.906;10.908;2022-08-11T10:31:03;4.23;;;2.37;;
1993;SDS011;998;49.906;10.908;2022-08-11T10:33:48;8.03;;;2.63;;
1993;SDS011;998;49.906;10.908;2022-08-11T10:36:25;5.70;;;2.03;;
1993;SDS011;998;49.906;10.908;2022-08-11T10:38:55;5.10;;;2.20;;
1993;SDS011;998;49.906;10.908;2022-08-11T10:41:24;4.33;;;2.20;;
1993;SDS011;998;49.906;10.908;2022-08-11T10:44:10;5.97;;;2.10;;
1993;SDS011;998;49.906;10.908;2022-08-11T10:46:38;6.10;;;2.60;;
1993;SDS011;998;49.906;10.908;2022-08-11T10:49:23;3.67;;;2.33;;
1993;SDS011;998;49.906;10.908;2022-08-11T10:51:57;3.50;;;1.97;;
1993;SDS011;998;49.906;10.908;2022-08-11T11:02:10;6.83;;;2.47;;
1993;SDS011;998;49.906;10.908;2022-08-11T11:12:18;9.10;;;2.87;;
1993;SDS011;998;49.906;10.908;2022-08-11T11:16:54;5.13;;;2.00;;
1993;SDS011;998;49.906;10.908;2022-08-11T11:22:35;4.57;;;1.90;;
1993;SDS011;998;49.906;10.908;2022-08-11T11:29:38;5.00;;;2.40;;
1993;SDS011;998;49.906;10.908;2022-08-11T11:33:16;4.70;;;2.27;;
1993;SDS011;998;49.906;10.908;2022-08-11T11:36:18;7.67;;;2.60;;
1993;SDS011;998;49.906;10.908;2022-08-11T11:39:42;3.97;;;2.10;;
1993;SDS011;998;49.906;10.908;2022-08-11T12:36:37;7.30;;;1.83;;
1993;SDS011;998;49.906;10.908;2022-08-11T12:39:30;5.87;;;2.47;;
1993;SDS011;998;49.906;10.908;2022-08-11T12:42:21;5.20;;;2.30;;
1993;SDS011;998;49.906;10.908;2022-08-11T12:45:06;4.80;;;2.10;;
1993;SDS011;998;49.906;10.908;2022-08-11T12:48:02;6.80;;;1.90;;
1993;SDS011;998;49.906;10.908;2022-08-11T12:50:53;4.97;;;2.20;;
1993;SDS011;998;49.906;10.908;2022-08-11T12:53:42;3.80;;;2.10;;
1993;SDS011;998;49.906;10.908;2022-08-11T12:56:27;4.40;;;1.80;;
1993;SDS011;998;49.906;10.908;2022-08-11T12:59:37;5.13;;;2.30;;
1993;SDS011;998;49.906;10.908;2022-08-11T13:05:38;4.20;;;2.40;;
1993;SDS011;998;49.906;10.908;2022-08-11T13:08:28;7.73;;;3.37;;
1993;SDS011;998;49.906;10.908;2022-08-11T13:11:01;4.40;;;2.13;;
1993;SDS011;998;49.906;10.908;2022-08-11T13:13:55;5.13;;;2.07;;
1993;SDS011;998;49.906;10.908;2022-08-11T13:16:27;2.77;;;1.87;;
1993;SDS011;998;49.906;10.908;2022-08-11T13:18:56;4.57;;;2.67;;
1993;SDS011;998;49.906;10.908;2022-08-11T13:21:31;3.70;;;2.37;;
1993;SDS011;998;49.906;10.908;2022-08-11T13:24:07;8.73;;;3.20;;
1993;SDS011;998;49.906;10.908;2022-08-11T13:29:55;6.63;;;2.60;;
1993;SDS011;998;49.906;10.908;2022-08-11T13:32:43;3.13;;;2.10;;
1993;SDS011;998;49.906;10.908;2022-08-11T13:35:21;3.57;;;2.10;;
1993;SDS011;998;49.906;10.908;2022-08-11T13:37:52;3.43;;;2.03;;
1993;SDS011;998;49.906;10.908;2022-08-11T13:40:26;3.30;;;2.23;;
1993;SDS011;998;49.906;10.908;2022-08-11T13:42:55;6.60;;;2.63;;
1993;SDS011;998;49.906;10.908;2022-08-11T13:45:23;6.20;;;2.40;;
1993;SDS011;998;49.906;10.908;2022-08-11T13:48:02;3.33;;;1.93;;
1993;SDS011;998;49.906;10.908;2022-08-11T13:50:34;10.43;;;2.13;;
1993;SDS011;998;49.906;10.908;2022-08-11T13:53:21;3.93;;;2.50;;
1993;SDS011;998;49.906;10.908;2022-08-11T13:55:51;4.97;;;1.80;;
1993;SDS011;998;49.906;10.908;2022-08-11T13:58:19;5.10;;;2.57;;
1993;SDS011;998;49.906;10.908;2022-08-11T14:00:58;3.17;;;2.03;;
1993;SDS011;998;49.906;10.908;2022-08-11T14:03:36;3.97;;;2.37;;
1993;SDS011;998;49.906;10.908;2022-08-11T14:06:16;5.67;;;2.23;;
1993;SDS011;998;49.906;10.908;2022-08-11T14:08:55;3.10;;;2.30;;
1993;SDS011;998;49.906;10.908;2022-08-11T14:11:33;4.10;;;2.53;;
1993;SDS011;998;49.906;10.908;2022-08-11T14:14:24;3.80;;;2.70;;
1993;SDS011;998;49.906;10.908;2022-08-11T14:19:50;5.30;;;2.00;;
1993;SDS011;998;49.906;10.908;2022-08-11T14:22:38;4.00;;;2.10;;
1993;SDS011;998;49.906;10.908;2022-08-11T14:25:10;5.93;;;2.57;;
1993;SDS011;998;49.906;10.908;2022-08-11T14:27:44;4.70;;;2.00;;
1993;SDS011;998;49.906;10.908;2022-08-11T14:30:14;3.27;;;2.20;;
1993;SDS011;998;49.906;10.908;2022-08-11T14:32:55;3.80;;;2.33;;
1993;SDS011;998;49.906;10.908;2022-08-11T14:35:23;5.40;;;2.87;;
1993;SDS011;998;49.906;10.908;2022-08-11T14:37:52;3.93;;;2.20;;
1993;SDS011;998;49.906;10.908;2022-08-11T14:40:20;3.80;;;1.80;;
1993;SDS011;998;49.906;10.908;2022-08-11T14:43:07;6.03;;;2.33;;
1993;SDS011;998;49.906;10.908;2022-08-11T14:45:51;3.87;;;2.23;;
1993;SDS011;998;49.906;10.908;2022-08-11T14:48:49;4.93;;;2.10;;
1993;SDS011;998;49.906;10.908;2022-08-11T14:51:17;4.20;;;1.80;;
1993;SDS011;998;49.906;10.908;2022-08-11T14:53:46;6.80;;;3.00;;
1993;SDS011;998;49.906;10.908;2022-08-11T14:56:34;10.53;;;2.57;;
1993;SDS011;998;49.906;10.908;2022-08-11T14:59:02;3.50;;;2.10;;
1993;SDS011;998;49.906;10.908;2022-08-11T15:01:30;5.50;;;2.00;;
1993;SDS011;998;49.906;10.908;2022-08-11T15:04:14;4.90;;;2.27;;
1993;SDS011;998;49.906;10.908;2022-08-11T15:06:41;5.37;;;2.30;;
1993;SDS011;998;49.906;10.908;2022-08-11T15:09:08;4.50;;;2.30;;
1993;SDS011;998;49.906;10.908;2022-08-11T15:11:35;5.37;;;2.53;;
1993;SDS011;998;49.906;10.908;2022-08-11T15:14:21;4.20;;;2.03;;
1993;SDS011;998;49.906;10.908;2022-08-11T15:17:03;13.07;;;3.07;;
1993;SDS011;998;49.906;10.908;2022-08-11T15:19:34;10.23;;;3.23;;
1993;SDS011;998;49.906;10.908;2022-08-11T15:22:26;5.23;;;2.43;;
1993;SDS011;998;49.906;10.908;2022-08-11T15:25:11;6.40;;;2.40;;
1993;SDS011;998;49.906;10.908;2022-08-11T15:27:38;3.53;;;2.13;;
1993;SDS011;998;49.906;10.908;2022-08-11T15:30:26;6.57;;;2.87;;
1993;SDS011;998;49.906;10.908;2022-08-11T15:33:13;4.67;;;2.27;;
1993;SDS011;998;49.906;10.908;2022-08-11T15:35:59;7.80;;;2.90;;
1993;SDS011;998;49.906;10.908;2022-08-11T15:38:48;4.70;;;2.20;;
1993;SDS011;998;49.906;10.908;2022-08-11T15:41:20;5.53;;;1.97;;
1993;SDS011;998;49.906;10.908;2022-08-11T15:44:10;4.83;;;2.30;;
1993;SDS011;998;49.906;10.908;2022-08-11T15:46:59;4.30;;;3.53;;
1993;SDS011;998;49.906;10.908;2022-08-11T15:49:30;4.20;;;2.00;;
1993;SDS011;998;49.906;10.908;2022-08-11T15:52:02;4.10;;;1.80;;
1993;SDS011;998;49.906;10.908;2022-08-11T15:54:34;4.80;;;2.00;;
1993;SDS011;998;49.906;10.908;2022-08-11T15:57:06;3.90;;;2.33;;
1993;SDS011;998;49.906;10.908;2022-08-11T15:59:54;4.63;;;2.30;;
1993;SDS011;998;49.906;10.908;2022-08-11T16:02:39;3.43;;;2.20;;
1993;SDS011;998;49.906;10.908;2022-08-11T16:05:26;5.33;;;2.20;;
1993;SDS011;998;49.906;10.908;2022-08-11T16:07:53;2.93;;;1.90;;
1993;SDS011;998;49.906;10.908;2022-08-11T16:10:21;5.20;;;2.40;;
1993;SDS011;998;49.906;10.908;2022-08-11T16:12:51;4.00;;;2.57;;
1993;SDS011;998;49.906;10.908;2022-08-11T16:15:48;5.23;;;3.13;;
1993;SDS011;998;49.906;10.908;2022-08-11T16:18:35;5.80;;;2.50;;
1993;SDS011;998;49.906;10.908;2022-08-11T16:21:07;4.70;;;2.27;;
1993;SDS011;998;49.906;10.908;2022-08-11T16:23:36;5.17;;;2.20;;
1993;SDS011;998;49.906;10.908;2022-08-11T16:26:06;3.97;;;2.00;;
1993;SDS011;998;49.906;10.908;2022-08-11T16:28:34;8.20;;;2.23;;
1993;SDS011;998;49.906;10.908;2022-08-11T16:31:04;6.20;;;2.57;;
1993;SDS011;998;49.906;10.908;2022-08-11T16:33:36;6.97;;;3.23;;
1993;SDS011;998;49.906;10.908;2022-08-11T16:36:05;5.30;;;3.20;;
1993;SDS011;998;49.906;10.908;2022-08-11T16:38:51;6.60;;;2.80;;
1993;SDS011;998;49.906;10.908;2022-08-11T16:41:20;4.33;;;2.83;;
1993;SDS011;998;49.906;10.908;2022-08-11T16:44:03;6.30;;;2.80;;
1993;SDS011;998;49.906;10.908;2022-08-11T16:46:49;4.40;;;2.37;;
1993;SDS011;998;49.906;10.908;2022-08-11T16:49:30;8.37;;;3.00;;
1993;SDS011;998;49.906;10.908;2022-08-11T16:52:00;6.27;;;3.17;;
1993;SDS011;998;49.906;10.908;2022-08-11T16:54:29;4.90;;;2.20;;
1993;SDS011;998;49.906;10.908;2022-08-11T16:56:58;3.13;;;2.40;;
1993;SDS011;998;49.906;10.908;2022-08-11T16:59:48;5.80;;;2.30;;
1993;SDS011;998;49.906;10.908;2022-08-11T17:02:16;3.50;;;2.67;;
1993;SDS011;998;49.906;10.908;2022-08-11T17:05:02;5.60;;;2.10;;
1993;SDS011;998;49.906;10.908;2022-08-11T17:07:51;4.57;;;2.53;;
1993;SDS011;998;49.906;10.908;2022-08-11T17:10:39;4.30;;;2.40;;
1993;SDS011;998;49.906;10.908;2022-08-11T17:16:18;4.03;;;2.37;;
1993;SDS011;998;49.906;10.908;2022-08-11T17:19:44;4.10;;;2.17;;
1993;SDS011;998;49.906;10.908;2022-08-11T17:26:34;4.93;;;1.90;;
1993;SDS011;998;49.906;10.908;2022-08-11T17:29:45;12.50;;;3.17;;
1993;SDS011;998;49.906;10.908;2022-08-11T17:49:14;4.87;;;2.90;;
1993;SDS011;998;49.906;10.908;2022-08-11T17:52:38;3.80;;;3.00;;
1993;SDS011;998;49.906;10.908;2022-08-11T18:02:27;5.10;;;2.23;;
1993;SDS011;998;49.906;10.908;2022-08-11T18:16:03;4.83;;;2.33;;
1993;SDS011;998;49.906;10.908;2022-08-11T18:25:39;5.30;;;1.77;;
1993;SDS011;998;49.906;10.908;2022-08-11T18:28:42;5.37;;;2.40;;
1993;SDS011;998;49.906;10.908;2022-08-11T18:31:41;8.30;;;2.10;;
1993;SDS011;998;49.906;10.908;2022-08-11T18:48:35;7.73;;;2.77;;
1993;SDS011;998;49.906;10.908;2022-08-11T18:52:14;4.20;;;2.30;;
1993;SDS011;998;49.906;10.908;2022-08-11T18:56:45;7.10;;;2.50;;
1993;SDS011;998;49.906;10.908;2022-08-11T18:59:00;5.73;;;2.30;;
1993;SDS011;998;49.906;10.908;2022-08-11T19:09:05;4.20;;;2.70;;
1993;SDS011;998;49.906;10.908;2022-08-11T19:15:18;5.43;;;3.30;;
1993;SDS011;998;49.906;10.908;2022-08-11T19:18:59;4.00;;;2.83;;
1993;SDS011;998;49.906;10.908;2022-08-11T20:30:54;3.83;;;2.07;;
1993;SDS011;998;49.906;10.908;2022-08-11T20:36:35;14.03;;;2.47;;
1993;SDS011;998;49.906;10.908;2022-08-11T20:52:36;7.40;;;2.97;;
1993;SDS011;998;49.906;10.908;2022-08-11T20:56:48;3.90;;;2.70;;
1993;SDS011;998;49.906;10.908;2022-08-11T20:59:04;7.27;;;2.47;;
1993;SDS011;998;49.906;10.908;2022-08-11T21:02:08;8.10;;;5.37;;
1993;SDS011;998;49.906;10.908;2022-08-11T21:05:24;10.20;;;4.07;;
1993;SDS011;998;49.906;10.908;2022-08-11T21:11:40;3.63;;;2.70;;
1993;SDS011;998;49.906;10.908;2022-08-11T21:14:32;11.43;;;2.80;;
1993;SDS011;998;49.906;10.908;2022-08-11T21:27:31;4.93;;;2.80;;
1993;SDS011;998;49.906;10.908;2022-08-11T21:31:09;5.23;;;2.47;;
1993;SDS011;998;49.906;10.908;2022-08-11T21:34:35;4.17;;;2.80;;
1993;SDS011;998;49.906;10.908;2022-08-11T21:37:29;5.43;;;2.80;;
1993;SDS011;998;49.906;10.908;2022-08-11T21:40:33;6.53;;;2.80;;
1993;SDS011;998;49.906;10.908;2022-08-11T21:43:46;4.20;;;2.80;;
1993;SDS011;998;49.906;10.908;2022-08-11T21:46:53;5.03;;;2.47;;
1993;SDS011;998;49.906;10.908;2022-08-11T21:50:03;6.90;;;3.00;;
1993;SDS011;998;49.906;10.908;2022-08-11T21:53:15;4.13;;;2.57;;
1993;SDS011;998;49.906;10.908;2022-08-11T21:59:52;4.57;;;2.77;;
1993;SDS011;998;49.906;10.908;2022-08-11T22:05:59;4.60;;;2.30;;
1993;SDS011;998;49.906;10.908;2022-08-11T22:16:51;4.67;;;3.23;;
1993;SDS011;998;49.906;10.908;2022-08-11T22:23:31;5.40;;;3.67;;
1993;SDS011;998;49.906;10.908;2022-08-11T22:26:40;5.83;;;3.57;;
1993;SDS011;998;49.906;10.908;2022-08-11T22:33:05;8.60;;;3.17;;
1993;SDS011;998;49.906;10.908;2022-08-11T22:36:08;4.73;;;2.60;;
1993;SDS011;998;49.906;10.908;2022-08-11T22:48:20;3.67;;;2.40;;
1993;SDS011;998;49.906;10.908;2022-08-11T22:51:14;6.50;;;2.33;;
1993;SDS011;998;49.906;10.908;2022-08-11T22:54:02;4.97;;;2.37;;
1993;SDS011;998;49.906;10.908;2022-08-11T22:57:06;3.80;;;2.33;;
1993;SDS011;998;49.906;10.908;2022-08-11T23:00:15;2.97;;;1.77;;
1993;SDS011;998;49.906;10.908;2022-08-11T23:02:59;3.73;;;2.30;;
1993;SDS011;998;49.906;10.908;2022-08-11T23:05:55;3.77;;;2.00;;
1993;SDS011;998;49.906;10.908;2022-08-11T23:08:46;3.20;;;2.10;;
1993;SDS011;998;49.906;10.908;2022-08-11T23:11:39;7.13;;;2.57;;
1993;SDS011;998;49.906;10.908;2022-08-11T23:14:24;8.67;;;5.10;;